Time;durP1;ratioP1;P1;durP2;ratioP2;P2;SDS_P1;SDS_P2;PMS_P1;PMS_P2;Temp;Humidity;BMP_temperature;BMP_pressure;BME280_temperature;BME280_humidity;BME280_pressure;Samples;Min_cycle;Max_cycle;Signal;HPM_P1;HPM_P2
2023/02/13 00:01:30;;;;;;;15.60;14.00;;;4.50;1.00;;;;;;5096928;28;20179;-41
2023/02/13 00:03:56;;;;;;;14.70;12.80;;;4.50;1.00;;;;;;5097935;28;20440;-41
2023/02/13 00:06:22;;;;;;;17.20;13.70;;;4.50;1.00;;;;;;5095903;28;20457;-43
2023/02/13 00:08:48;;;;;;;16.73;13.13;;;4.50;1.00;;;;;;5097118;28;20207;-41
2023/02/13 00:11:13;;;;;;;16.70;13.20;;;4.50;1.00;;;;;;5096398;28;20418;-41
2023/02/13 00:13:39;;;;;;;18.53;13.90;;;4.40;1.00;;;;;;5094735;28;20275;-41
2023/02/13 00:16:05;;;;;;;15.90;13.23;;;4.40;1.00;;;;;;5096425;28;20172;-42
2023/02/13 00:18:35;;;;;;;16.93;13.60;;;4.40;1.00;;;;;;5096305;28;20395;-41
2023/02/13 00:21:04;;;;;;;18.00;13.90;;;4.40;1.00;;;;;;5097422;28;20402;-41
2023/02/13 00:23:31;;;;;;;18.10;13.90;;;4.40;1.00;;;;;;5097563;28;20835;-42
2023/02/13 00:25:57;;;;;;;19.97;14.17;;;4.30;1.00;;;;;;5095428;28;20466;-41
2023/02/13 00:28:23;;;;;;;19.73;14.77;;;4.30;1.00;;;;;;5097618;28;20887;-42
2023/02/13 00:30:48;;;;;;;19.10;14.00;;;4.30;1.00;;;;;;5097687;28;20406;-42
2023/02/13 00:33:14;;;;;;;16.37;14.40;;;4.20;1.00;;;;;;5098419;28;20509;-40
2023/02/13 00:35:40;;;;;;;18.27;14.60;;;4.20;1.00;;;;;;5098630;28;20168;-41
2023/02/13 00:38:05;;;;;;;18.03;14.40;;;4.20;1.00;;;;;;5098565;28;20184;-41
2023/02/13 00:40:31;;;;;;;18.53;14.10;;;4.20;1.00;;;;;;5098195;28;20466;-43
2023/02/13 00:42:56;;;;;;;17.90;14.17;;;4.20;5.60;;;;;;5098415;28;20184;-41
2023/02/13 00:45:22;;;;;;;17.73;14.30;;;4.10;7.30;;;;;;5099064;28;20180;-41
2023/02/13 00:47:48;;;;;;;18.67;15.37;;;4.10;13.10;;;;;;5098809;28;20478;-41
2023/02/13 00:50:13;;;;;;;23.40;15.20;;;4.10;24.40;;;;;;5098445;28;20255;-42
2023/02/13 00:52:39;;;;;;;20.47;15.80;;;4.00;29.10;;;;;;5109276;28;20525;-41
2023/02/13 00:55:05;;;;;;;22.70;15.13;;;4.00;39.70;;;;;;5102186;28;20180;-43
2023/02/13 00:57:30;;;;;;;19.03;14.23;;;4.00;68.50;;;;;;5098906;28;20218;-41
2023/02/13 00:59:57;;;;;;;18.20;14.87;;;4.00;92.50;;;;;;5098115;28;20442;-40
2023/02/13 01:02:24;;;;;;;21.57;15.93;;;4.00;99.90;;;;;;5098577;28;20498;-41
2023/02/13 01:04:50;;;;;;;20.83;16.20;;;3.90;99.90;;;;;;5098362;28;20495;-42
2023/02/13 01:07:15;;;;;;;22.80;15.67;;;4.00;99.90;;;;;;5098750;28;20513;-41
2023/02/13 01:09:41;;;;;;;22.07;15.73;;;3.90;99.90;;;;;;5097386;28;20233;-41
2023/02/13 01:12:07;;;;;;;19.07;14.70;;;3.90;99.90;;;;;;5098436;28;20666;-41
2023/02/13 01:14:33;;;;;;;20.53;15.90;;;3.90;99.90;;;;;;5098248;28;20636;-41
2023/02/13 01:16:58;;;;;;;22.20;15.40;;;3.90;99.90;;;;;;5097247;28;20207;-40
2023/02/13 01:19:24;;;;;;;21.40;15.70;;;3.80;99.90;;;;;;5097452;28;20183;-40
2023/02/13 01:21:50;;;;;;;20.03;14.77;;;3.80;99.90;;;;;;5080931;28;20296;-41
2023/02/13 01:24:15;;;;;;;20.23;15.90;;;3.80;99.90;;;;;;5079329;28;20228;-43
2023/02/13 01:26:41;;;;;;;21.73;15.70;;;3.80;99.90;;;;;;5098154;28;20312;-40
2023/02/13 01:29:09;;;;;;;20.87;15.40;;;3.80;99.90;;;;;;5097484;28;20196;-41
2023/02/13 01:31:36;;;;;;;21.37;15.80;;;3.80;99.90;;;;;;5096941;28;20542;-41
2023/02/13 01:34:02;;;;;;;21.47;15.00;;;3.80;99.90;;;;;;5097264;28;20673;-42
2023/02/13 01:36:28;;;;;;;19.40;15.23;;;3.80;99.90;;;;;;5097914;28;20811;-42
2023/02/13 01:38:55;;;;;;;19.80;15.37;;;3.70;99.90;;;;;;5097742;28;20514;-44
2023/02/13 01:41:21;;;;;;;18.47;14.30;;;3.70;99.90;;;;;;5097945;28;20204;-41
2023/02/13 01:43:52;;;;;;;19.87;15.20;;;3.70;99.90;;;;;;5097634;28;20444;-41
2023/02/13 01:46:41;;;;;;;19.37;14.70;;;3.70;99.90;;;;;;5097144;28;20422;-42
2023/02/13 01:49:14;;;;;;;19.40;15.50;;;3.70;99.90;;;;;;5097945;28;20743;-41
2023/02/13 01:51:40;;;;;;;20.97;15.43;;;3.70;99.90;;;;;;5097354;28;20665;-40
2023/02/13 01:54:15;;;;;;;21.73;15.47;;;3.70;99.90;;;;;;5097564;28;20414;-41
2023/02/13 01:56:44;;;;;;;21.67;15.47;;;3.60;99.90;;;;;;5097042;28;20430;-42
2023/02/13 01:59:13;;;;;;;19.10;15.00;;;3.60;99.90;;;;;;5096804;28;20824;-41
2023/02/13 02:01:39;;;;;;;20.00;14.63;;;3.60;99.90;;;;;;5096532;28;20521;-43
2023/02/13 02:04:16;;;;;;;21.07;15.07;;;3.50;99.90;;;;;;5079790;28;20681;-46
2023/02/13 02:06:44;;;;;;;18.07;14.40;;;3.50;99.90;;;;;;5096347;28;20836;-40
2023/02/13 02:09:15;;;;;;;17.93;15.20;;;3.50;99.90;;;;;;5095555;28;20454;-41
2023/02/13 02:12:06;;;;;;;19.27;15.63;;;3.50;99.90;;;;;;5094630;28;20481;-40
2023/02/13 02:14:31;;;;;;;19.57;14.27;;;3.50;99.90;;;;;;5094000;28;20533;-42
2023/02/13 02:16:57;;;;;;;19.60;14.80;;;3.40;99.90;;;;;;5097059;28;20818;-40
2023/02/13 02:19:51;;;;;;;19.10;14.40;;;3.40;99.90;;;;;;5097721;28;20187;-42
2023/02/13 02:22:26;;;;;;;21.30;14.90;;;3.40;99.90;;;;;;5096973;28;20428;-41
2023/02/13 02:25:32;;;;;;;17.87;15.00;;;3.40;99.90;;;;;;5097161;28;20481;-41
2023/02/13 02:28:01;;;;;;;17.50;13.73;;;3.40;99.90;;;;;;5054848;28;20507;-40
2023/02/13 02:30:45;;;;;;;18.77;14.73;;;3.40;99.90;;;;;;5054975;28;20707;-41
2023/02/13 02:33:40;;;;;;;16.30;13.67;;;3.30;99.90;;;;;;5071744;28;20529;-42
2023/02/13 02:36:33;;;;;;;20.20;14.63;;;3.30;99.90;;;;;;5074349;28;20487;-43
2023/02/13 02:39:35;;;;;;;16.50;14.47;;;3.30;99.90;;;;;;5096913;28;20422;-42
2023/02/13 02:42:32;;;;;;;18.30;15.03;;;3.30;99.90;;;;;;5097010;28;20437;-42
2023/02/13 02:45:07;;;;;;;18.43;14.63;;;3.30;99.90;;;;;;5077399;28;20692;-41
2023/02/13 02:50:36;;;;;;;18.23;13.67;;;3.20;99.90;;;;;;5096637;28;20896;-41
2023/02/13 02:53:16;;;;;;;19.73;14.67;;;3.20;99.90;;;;;;5096714;28;20415;-42
2023/02/13 02:55:44;;;;;;;19.87;14.90;;;3.20;99.90;;;;;;5096963;28;20417;-38
2023/02/13 03:07:06;;;;;;;19.63;14.80;;;3.10;99.90;;;;;;5094771;28;20744;-42
2023/02/13 03:15:18;;;;;;;17.77;15.27;;;3.00;99.90;;;;;;5056993;28;20410;-41
2023/02/13 03:23:45;;;;;;;18.07;14.43;;;2.90;99.90;;;;;;5096000;28;20657;-41
2023/02/13 03:26:49;;;;;;;20.60;16.10;;;2.90;99.90;;;;;;5079300;28;20438;-41
2023/02/13 03:32:30;;;;;;;22.60;15.40;;;2.90;99.90;;;;;;5095772;28;20692;-41
2023/02/13 03:38:42;;;;;;;23.20;16.87;;;2.90;99.90;;;;;;5094338;28;20440;-41
2023/02/13 03:41:19;;;;;;;20.70;15.30;;;2.90;99.90;;;;;;5077889;28;20411;-41
2023/02/13 03:43:54;;;;;;;18.07;14.00;;;2.90;99.90;;;;;;5099862;28;20438;-41
2023/02/13 03:46:20;;;;;;;26.17;16.10;;;2.90;99.90;;;;;;5098412;28;20499;-39
2023/02/13 03:51:38;;;;;;;23.20;17.03;;;2.80;99.90;;;;;;5098358;28;20497;-42
2023/02/13 03:54:08;;;;;;;23.77;16.77;;;2.80;99.90;;;;;;5098255;28;20482;-41
2023/02/13 03:59:25;;;;;;;23.83;17.70;;;2.80;99.90;;;;;;5098156;28;20438;-41
2023/02/13 04:02:12;;;;;;;23.20;15.70;;;2.80;99.90;;;;;;5098077;28;20442;-42
2023/02/13 04:04:59;;;;;;;22.43;16.00;;;2.80;99.90;;;;;;5078084;28;20420;-42
2023/02/13 04:07:30;;;;;;;21.70;15.50;;;2.80;99.90;;;;;;5079091;28;20439;-42
2023/02/13 04:10:02;;;;;;;22.43;16.60;;;2.80;99.90;;;;;;5076672;28;20422;-43
2023/02/13 04:12:37;;;;;;;19.17;15.27;;;2.80;99.90;;;;;;5076005;28;20732;-41
2023/02/13 04:15:05;;;;;;;21.10;17.20;;;2.80;99.90;;;;;;5078114;28;20422;-41
2023/02/13 04:17:57;;;;;;;21.30;16.90;;;2.80;99.90;;;;;;5097516;28;20868;-42
2023/02/13 04:20:26;;;;;;;25.57;17.47;;;2.80;99.90;;;;;;5096708;28;20507;-46
2023/02/13 04:22:52;;;;;;;24.40;17.60;;;2.70;99.90;;;;;;5098266;28;20429;-41
2023/02/13 04:25:18;;;;;;;22.80;17.27;;;2.70;1.00;;;;;;5097891;28;20482;-41
2023/02/13 04:27:43;;;;;;;23.80;17.07;;;2.70;1.00;;;;;;5097692;28;20440;-42
2023/02/13 04:30:10;;;;;;;22.33;16.50;;;2.70;1.00;;;;;;5097682;28;20427;-41
2023/02/13 04:32:35;;;;;;;26.50;18.10;;;2.70;99.90;;;;;;5097641;28;20210;-40
2023/02/13 04:35:01;;;;;;;20.57;15.40;;;2.70;99.90;;;;;;5098560;28;20415;-41
2023/02/13 04:37:27;;;;;;;22.93;16.00;;;2.70;99.90;;;;;;5098350;28;20184;-40
2023/02/13 04:39:52;;;;;;;23.43;17.80;;;2.70;99.90;;;;;;5097832;28;20267;-44
2023/02/13 04:42:18;;;;;;;22.00;16.57;;;2.60;99.90;;;;;;5097402;28;20462;-41
2023/02/13 04:44:43;;;;;;;23.00;17.70;;;2.60;99.90;;;;;;5097553;28;20576;-41
2023/02/13 04:47:09;;;;;;;25.90;18.40;;;2.60;99.90;;;;;;5097159;28;20180;-40
2023/02/13 04:49:35;;;;;;;24.33;17.67;;;2.60;99.90;;;;;;5097141;28;20257;-40
2023/02/13 04:52:00;;;;;;;25.00;16.77;;;2.60;99.90;;;;;;5096013;28;20181;-41
2023/02/13 04:54:26;;;;;;;23.67;18.90;;;2.60;99.90;;;;;;5095816;28;20168;-41
2023/02/13 04:56:52;;;;;;;23.40;17.13;;;2.60;99.90;;;;;;5096505;28;20191;-42
2023/02/13 04:59:18;;;;;;;23.80;16.57;;;2.60;99.90;;;;;;5097639;28;20275;-42
2023/02/13 05:01:43;;;;;;;22.10;15.87;;;2.50;99.90;;;;;;5097563;28;20514;-41
2023/02/13 05:04:10;;;;;;;21.13;16.97;;;2.50;99.90;;;;;;5097351;28;20200;-40
2023/02/13 05:06:37;;;;;;;22.30;18.17;;;2.50;99.90;;;;;;5098122;28;20172;-42
2023/02/13 05:09:03;;;;;;;21.30;16.10;;;2.50;99.90;;;;;;5098269;28;20466;-42
2023/02/13 05:11:28;;;;;;;22.70;16.50;;;2.50;99.90;;;;;;5098273;28;20421;-41
2023/02/13 05:13:54;;;;;;;22.47;16.17;;;2.50;99.90;;;;;;5097496;28;20553;-40
2023/02/13 05:16:19;;;;;;;23.20;16.00;;;2.40;99.90;;;;;;5094913;28;20177;-42
2023/02/13 05:18:45;;;;;;;23.07;17.07;;;2.40;99.90;;;;;;5096452;28;20191;-42
2023/02/13 05:23:55;;;;;;;23.70;17.97;;;2.40;99.90;;;;;;5091677;28;20761;-41
2023/02/13 05:26:20;;;;;;;21.20;16.67;;;2.40;99.90;;;;;;5091598;28;20422;-41
2023/02/13 05:31:30;;;;;;;25.27;18.93;;;2.30;99.90;;;;;;5091571;28;20176;-43
2023/02/13 05:33:56;;;;;;;22.07;17.40;;;2.30;99.90;;;;;;5091140;28;20749;-41
2023/02/13 05:36:21;;;;;;;19.47;15.50;;;2.30;99.90;;;;;;5091273;28;20183;-40
2023/02/13 05:38:47;;;;;;;22.20;15.97;;;2.30;99.90;;;;;;5093385;28;20267;-40
2023/02/13 05:41:12;;;;;;;21.50;16.10;;;2.30;99.90;;;;;;5093073;28;20754;-42
2023/02/13 05:43:38;;;;;;;24.27;18.20;;;2.30;99.90;;;;;;5094940;28;20244;-40
2023/02/13 05:46:05;;;;;;;22.70;16.87;;;2.30;99.90;;;;;;5095727;28;20466;-41
2023/02/13 05:48:31;;;;;;;23.47;16.80;;;2.30;99.90;;;;;;5094303;28;20240;-40
2023/02/13 05:50:57;;;;;;;24.17;17.77;;;2.30;1.00;;;;;;5094139;28;20399;-41
2023/02/13 05:53:23;;;;;;;24.77;18.67;;;2.30;1.00;;;;;;5091930;28;20812;-41
2023/02/13 05:55:51;;;;;;;23.70;17.83;;;2.20;1.00;;;;;;5094279;28;20481;-42
2023/02/13 05:58:17;;;;;;;25.87;18.60;;;2.20;1.00;;;;;;5095070;28;20243;-41
2023/02/13 06:00:43;;;;;;;23.30;17.80;;;2.20;1.00;;;;;;5094299;28;20503;-41
2023/02/13 06:03:08;;;;;;;24.53;19.50;;;2.20;1.00;;;;;;5092189;28;20862;-40
2023/02/13 06:05:34;;;;;;;23.40;17.93;;;2.20;1.00;;;;;;5093502;28;20227;-42
2023/02/13 06:08:00;;;;;;;23.67;17.33;;;2.20;1.00;;;;;;5091701;28;20586;-40
2023/02/13 06:10:29;;;;;;;20.13;16.10;;;2.20;1.00;;;;;;5094166;28;20165;-42
2023/02/13 06:12:55;;;;;;;22.63;17.80;;;2.20;1.00;;;;;;5093669;28;20448;-41
2023/02/13 06:15:21;;;;;;;23.80;17.87;;;2.20;99.90;;;;;;5092079;28;20509;-42
2023/02/13 06:17:46;;;;;;;25.60;18.37;;;2.20;99.90;;;;;;5089355;28;20184;-41
2023/02/13 06:20:12;;;;;;;23.10;17.87;;;2.20;99.90;;;;;;5090472;28;20180;-42
2023/02/13 06:22:37;;;;;;;21.90;17.27;;;2.20;99.90;;;;;;5091594;28;20362;-42
2023/02/13 06:25:04;;;;;;;24.83;17.30;;;2.20;99.90;;;;;;5089436;28;20709;-41
2023/02/13 06:27:30;;;;;;;24.37;17.63;;;2.10;99.90;;;;;;5091342;28;20188;-40
2023/02/13 06:29:55;;;;;;;25.77;18.10;;;2.10;99.90;;;;;;5092270;28;20414;-41
2023/02/13 06:32:21;;;;;;;24.10;17.00;;;2.10;99.90;;;;;;5088631;28;20180;-41
2023/02/13 06:34:46;;;;;;;23.73;17.90;;;2.10;99.90;;;;;;5088583;28;20251;-41
2023/02/13 06:37:12;;;;;;;23.17;16.47;;;2.10;99.90;;;;;;5087804;28;20554;-41
2023/02/13 06:39:38;;;;;;;24.63;18.97;;;2.10;99.90;;;;;;5090629;28;20274;-40
2023/02/13 06:42:03;;;;;;;23.33;17.97;;;2.10;99.90;;;;;;5088115;28;20185;-40
2023/02/13 06:44:29;;;;;;;22.47;17.57;;;2.10;99.90;;;;;;5067730;28;20184;-41
2023/02/13 06:46:54;;;;;;;27.33;19.60;;;2.10;1.00;;;;;;5090222;28;20176;-40
2023/02/13 06:49:20;;;;;;;26.97;19.67;;;2.10;1.00;;;;;;5088765;28;20202;-41
2023/02/13 06:51:46;;;;;;;26.30;19.70;;;2.10;1.00;;;;;;5086919;28;20214;-40
2023/02/13 06:54:11;;;;;;;26.63;17.70;;;2.20;1.00;;;;;;5090009;28;20161;-40
2023/02/13 06:56:37;;;;;;;26.10;19.50;;;2.20;1.00;;;;;;5088682;28;20188;-41
2023/02/13 06:59:03;;;;;;;23.73;18.20;;;2.20;1.00;;;;;;5091608;28;20168;-41
2023/02/13 07:01:28;;;;;;;26.23;18.33;;;2.30;1.00;;;;;;5090825;28;20212;-41
2023/02/13 07:03:55;;;;;;;24.33;17.67;;;2.40;1.00;;;;;;5090580;28;20267;-41
2023/02/13 07:06:21;;;;;;;27.87;18.70;;;2.60;99.90;;;;;;5089929;28;20506;-41
2023/02/13 07:08:47;;;;;;;24.80;17.83;;;2.70;99.90;;;;;;5090640;28;20553;-41
2023/02/13 07:11:19;;;;;;;26.80;19.53;;;2.80;99.90;;;;;;5090824;28;20169;-41
2023/02/13 07:13:45;;;;;;;23.30;17.83;;;3.00;99.90;;;;;;5085551;28;20435;-40
2023/02/13 07:16:10;;;;;;;23.23;17.90;;;3.20;36.90;;;;;;5073658;28;20560;-40
2023/02/13 07:18:36;;;;;;;21.83;16.97;;;3.40;1.00;;;;;;5075282;28;20605;-41
2023/02/13 07:21:02;;;;;;;22.93;17.07;;;3.60;1.00;;;;;;5076057;28;20223;-42
2023/02/13 07:23:27;;;;;;;25.90;17.67;;;3.80;1.00;;;;;;5074293;28;20427;-42
2023/02/13 07:25:53;;;;;;;18.47;15.10;;;4.10;1.00;;;;;;5073338;28;20236;-41
2023/02/13 07:28:19;;;;;;;22.40;16.70;;;4.40;1.00;;;;;;5075873;28;20217;-42
2023/02/13 07:30:44;;;;;;;17.13;14.50;;;4.70;1.00;;;;;;5072817;28;20400;-41
2023/02/13 07:33:10;;;;;;;16.90;13.30;;;4.90;1.00;;;;;;5082315;28;20623;-39
2023/02/13 07:35:37;;;;;;;17.60;14.43;;;5.20;1.00;;;;;;5097530;28;20614;-40
2023/02/13 07:38:03;;;;;;;18.40;14.10;;;5.50;1.00;;;;;;5096068;28;20280;-40
2023/02/13 07:40:29;;;;;;;16.77;14.23;;;5.80;1.00;;;;;;5093877;28;20848;-42
2023/02/13 07:42:55;;;;;;;16.50;13.10;;;6.10;1.00;;;;;;5097511;28;20525;-41
2023/02/13 07:45:21;;;;;;;15.67;13.47;;;6.40;1.00;;;;;;5096847;28;20200;-40
2023/02/13 07:47:46;;;;;;;17.80;14.40;;;6.70;99.90;;;;;;5097475;28;20502;-43
2023/02/13 07:50:12;;;;;;;20.87;13.80;;;6.90;99.90;;;;;;5096421;28;20271;-44
2023/02/13 07:52:38;;;;;;;14.63;13.10;;;7.20;99.90;;;;;;5093745;28;20517;-42
2023/02/13 07:55:05;;;;;;;17.00;13.40;;;7.40;99.90;;;;;;5092488;28;20410;-42
2023/02/13 07:57:30;;;;;;;15.63;13.70;;;7.70;99.90;;;;;;5090630;28;20430;-42
2023/02/13 07:59:56;;;;;;;14.50;11.87;;;8.00;99.90;;;;;;5092944;28;20442;-42
2023/02/13 08:02:22;;;;;;;15.47;13.53;;;8.30;99.90;;;;;;5092672;28;20551;-42
2023/02/13 08:04:47;;;;;;;16.40;14.30;;;8.50;99.90;;;;;;5092816;28;20179;-42
2023/02/13 08:07:14;;;;;;;15.67;13.27;;;8.90;99.90;;;;;;5094718;28;20177;-41
2023/02/13 08:12:24;;;;;;;14.57;13.00;;;9.50;51.00;;;;;;5093902;28;20421;-41
2023/02/13 08:14:51;;;;;;;16.00;13.77;;;9.80;13.40;;;;;;5094311;28;20415;-42
2023/02/13 08:17:17;;;;;;;14.70;12.87;;;10.20;1.00;;;;;;5094668;28;20180;-42
2023/02/13 08:19:43;;;;;;;15.10;13.23;;;10.50;1.00;;;;;;5094272;28;20801;-45
2023/02/13 08:22:08;;;;;;;14.50;13.00;;;10.90;1.00;;;;;;5095229;28;20199;-42
2023/02/13 08:24:34;;;;;;;13.80;12.30;;;11.20;1.00;;;;;;5093233;28;20227;-42
2023/02/13 08:27:00;;;;;;;14.13;11.93;;;11.60;1.00;;;;;;5094578;28;20180;-41
2023/02/13 08:29:25;;;;;;;15.37;13.33;;;11.90;1.00;;;;;;5095108;28;20280;-41
2023/02/13 08:31:51;;;;;;;11.50;10.30;;;12.30;1.00;;;;;;5093471;28;20275;-42
2023/02/13 08:34:17;;;;;;;11.33;2.63;;;12.60;1.00;;;;;;5095351;28;20178;-43
2023/02/13 08:36:42;;;;;;;5.70;4.73;;;13.60;99.90;;;;;;5095481;28;20567;-42
2023/02/13 08:39:09;;;;;;;7.47;6.80;;;14.50;99.90;;;;;;5093547;28;20173;-43
2023/02/13 08:41:34;;;;;;;11.30;10.10;;;15.30;1.00;;;;;;5096480;28;20177;-42
2023/02/13 08:44:00;;;;;;;16.33;12.10;;;15.80;1.00;;;;;;5094603;28;20414;-42
2023/02/13 08:46:26;;;;;;;12.87;11.57;;;16.10;1.00;;;;;;5093727;28;20169;-42
2023/02/13 08:48:53;;;;;;;12.50;11.30;;;16.30;1.00;;;;;;5094041;28;20261;-46
2023/02/13 08:51:19;;;;;;;12.63;11.03;;;16.50;1.00;;;;;;5094449;28;20279;-43
2023/02/13 08:53:44;;;;;;;14.47;13.03;;;16.80;1.00;;;;;;5094728;28;20485;-45
2023/02/13 08:56:10;;;;;;;13.17;11.77;;;17.10;1.00;;;;;;5094582;28;20173;-42
2023/02/13 08:58:36;;;;;;;13.13;11.87;;;17.40;1.00;;;;;;5095773;28;20428;-43
2023/02/13 09:01:08;;;;;;;11.57;10.47;;;17.80;1.00;;;;;;5095425;28;20402;-43
2023/02/13 09:03:34;;;;;;;12.77;11.47;;;18.10;1.00;;;;;;5095061;28;20435;-45
2023/02/13 09:06:01;;;;;;;11.00;9.20;;;18.40;1.00;;;;;;5094273;28;20449;-43
2023/02/13 09:08:27;;;;;;;13.70;12.40;;;18.80;1.00;;;;;;5093831;28;20470;-44
2023/02/13 09:11:01;;;;;;;13.57;12.27;;;19.20;1.00;;;;;;5093618;28;20403;-43
2023/02/13 09:13:28;;;;;;;12.87;11.57;;;19.50;1.00;;;;;;5094473;28;20505;-43
2023/02/13 09:15:56;;;;;;;12.73;11.53;;;20.00;1.00;;;;;;5093195;28;20411;-44
2023/02/13 09:18:21;;;;;;;11.30;10.23;;;20.50;1.00;;;;;;5092680;28;20469;-43
2023/02/13 09:20:47;;;;;;;13.23;11.90;;;20.90;1.00;;;;;;5092241;28;20689;-43
2023/02/13 09:23:13;;;;;;;12.43;11.13;;;21.30;1.00;;;;;;5092106;28;20192;-43
2023/02/13 09:25:38;;;;;;;13.60;12.30;;;21.70;1.00;;;;;;5093883;28;20251;-42
2023/02/13 09:28:04;;;;;;;10.77;9.70;;;21.90;1.00;;;;;;5093864;28;20698;-45
2023/02/13 09:30:30;;;;;;;10.50;9.60;;;22.20;1.00;;;;;;5094507;28;20238;-43
2023/02/13 09:32:55;;;;;;;10.10;9.20;;;22.70;1.00;;;;;;5094757;28;20564;-44
2023/02/13 09:35:22;;;;;;;9.90;9.10;;;23.10;1.00;;;;;;5094457;28;20169;-43
2023/02/13 09:37:47;;;;;;;9.30;8.50;;;23.40;1.00;;;;;;5093405;28;20476;-44
2023/02/13 09:40:19;;;;;;;9.03;8.13;;;23.60;1.00;;;;;;5094798;28;20437;-44
2023/02/13 09:42:46;;;;;;;9.53;8.73;;;23.90;1.00;;;;;;5088767;28;20207;-43
2023/02/13 09:45:13;;;;;;;9.80;8.53;;;24.30;1.00;;;;;;5093208;28;20668;-44
2023/02/13 09:47:40;;;;;;;9.67;8.77;;;24.70;1.00;;;;;;5091256;28;20441;-44
2023/02/13 09:50:11;;;;;;;9.80;8.90;;;25.10;1.00;;;;;;5089771;28;20403;-43
2023/02/13 09:52:38;;;;;;;8.40;7.70;;;25.60;1.00;;;;;;5088639;28;20480;-43
2023/02/13 09:55:17;;;;;;;8.10;7.40;;;26.00;1.00;;;;;;5092642;28;20430;-44
2023/02/13 09:57:48;;;;;;;8.10;7.40;;;25.80;1.00;;;;;;5092213;28;20774;-47
2023/02/13 10:00:28;;;;;;;8.60;7.90;;;26.10;1.00;;;;;;5090070;28;20902;-42
2023/02/13 10:02:57;;;;;;;8.77;8.00;;;26.70;1.00;;;;;;5091148;28;20410;-43
2023/02/13 10:05:51;;;;;;;7.70;7.07;;;27.20;1.00;;;;;;5091268;28;20403;-42
2023/02/13 10:08:37;;;;;;;8.10;7.50;;;27.70;1.00;;;;;;5093292;28;20468;-44
2023/02/13 10:11:07;;;;;;;8.47;7.87;;;28.30;1.00;;;;;;5093863;28;20823;-45
2023/02/13 10:13:51;;;;;;;8.50;7.80;;;28.70;1.00;;;;;;5093305;28;20426;-46
2023/02/13 10:16:22;;;;;;;7.63;7.03;;;28.70;1.00;;;;;;5080013;28;20398;-44
2023/02/13 10:19:16;;;;;;;8.20;7.50;;;28.90;1.00;;;;;;5074621;28;20843;-46
2023/02/13 10:21:49;;;;;;;8.70;8.00;;;29.30;1.00;;;;;;5084951;28;20512;-43
2023/02/13 10:24:53;;;;;;;8.37;7.77;;;29.60;1.00;;;;;;5073220;28;20540;-43
2023/02/13 10:27:24;;;;;;;7.20;6.70;;;30.00;1.00;;;;;;5031719;28;20436;-46
2023/02/13 10:30:04;;;;;;;7.43;6.83;;;30.20;1.00;;;;;;5068410;28;20419;-44
2023/02/13 10:32:47;;;;;;;7.87;7.23;;;30.60;1.00;;;;;;5073589;28;20424;-45
2023/02/13 10:35:31;;;;;;;8.40;7.70;;;30.40;1.00;;;;;;5071164;28;20566;-55
2023/02/13 10:37:59;;;;;;;7.97;7.37;;;30.30;1.00;;;;;;5072265;28;20539;-43
2023/02/13 10:40:31;;;;;;;7.17;6.63;;;30.70;1.00;;;;;;5072384;28;20825;-47
2023/02/13 10:43:07;;;;;;;6.83;6.23;;;30.70;1.00;;;;;;5054784;28;20688;-45
2023/02/13 10:45:56;;;;;;;7.73;7.13;;;31.00;1.00;;;;;;5073081;28;20456;-45
2023/02/13 10:48:53;;;;;;;5.83;5.33;;;31.10;1.00;;;;;;5072932;28;20763;-48
2023/02/13 10:52:03;;;;;;;5.20;4.60;;;31.30;1.00;;;;;;5038461;28;20432;-45
2023/02/13 10:54:47;;;;;;;7.60;7.00;;;31.80;1.00;;;;;;5066840;28;20401;-48
2023/02/13 10:57:30;;;;;;;5.60;4.80;;;31.50;1.00;;;;;;5102650;28;20419;-48
2023/02/13 11:00:02;;;;;;;8.10;7.30;;;32.10;1.00;;;;;;5096635;28;20517;-49
2023/02/13 11:02:31;;;;;;;7.20;6.60;;;31.90;1.00;;;;;;5095148;28;20446;-47
2023/02/13 11:05:01;;;;;;;7.10;6.50;;;31.90;1.00;;;;;;5095871;28;20787;-46
2023/02/13 11:07:28;;;;;;;7.37;6.77;;;32.20;1.00;;;;;;5095679;28;20513;-48
2023/02/13 11:09:59;;;;;;;7.03;6.33;;;33.00;1.00;;;;;;5088995;28;20451;-51
2023/02/13 11:12:30;;;;;;;6.73;6.23;;;33.10;1.00;;;;;;5107273;28;20415;-46
2023/02/13 11:14:59;;;;;;;7.40;6.70;;;33.50;1.00;;;;;;5101506;28;20855;-47
2023/02/13 11:17:29;;;;;;;6.30;5.80;;;34.20;1.00;;;;;;5098792;27;20431;-47
2023/02/13 11:19:58;;;;;;;7.07;6.17;;;34.60;1.00;;;;;;5094262;28;20615;-46
2023/02/13 11:22:38;;;;;;;5.70;5.20;;;35.10;1.00;;;;;;5095061;28;20393;-49
2023/02/13 11:25:19;;;;;;;6.47;5.87;;;35.70;1.00;;;;;;5094989;28;20725;-47
2023/02/13 11:27:48;;;;;;;6.03;5.53;;;36.10;1.00;;;;;;5097858;28;20818;-50
2023/02/13 11:30:22;;;;;;;7.70;7.10;;;36.20;1.00;;;;;;5100411;28;20466;-46
2023/02/13 11:33:06;;;;;;;7.00;6.40;;;36.20;1.00;;;;;;5114898;28;20417;-43
2023/02/13 11:35:34;;;;;;;7.23;6.73;;;35.50;1.00;;;;;;5115143;28;20398;-44
2023/02/13 11:38:17;;;;;;;7.10;6.13;;;35.30;1.00;;;;;;5095456;28;20442;-45
2023/02/13 11:40:46;;;;;;;6.93;6.43;;;35.50;1.00;;;;;;5093879;28;20438;-47
2023/02/13 11:43:24;;;;;;;5.80;5.40;;;35.40;1.00;;;;;;5094154;28;20494;-46
2023/02/13 11:46:08;;;;;;;5.70;5.30;;;35.50;1.00;;;;;;5092330;28;20427;-47
2023/02/13 11:48:34;;;;;;;6.47;5.97;;;36.00;1.00;;;;;;5091123;28;20761;-47
2023/02/13 11:51:00;;;;;;;6.00;5.50;;;36.30;1.00;;;;;;5093646;28;20531;-47
2023/02/13 11:53:31;;;;;;;5.60;5.20;;;36.30;1.00;;;;;;5091859;28;20414;-47
2023/02/13 11:56:10;;;;;;;6.50;6.00;;;36.50;1.00;;;;;;5092299;28;20434;-47
2023/02/13 11:58:36;;;;;;;5.03;4.63;;;36.80;1.00;;;;;;5093979;28;20501;-49
2023/02/13 12:01:23;;;;;;;5.50;5.10;;;37.00;1.00;;;;;;5094285;28;20415;-47
2023/02/13 12:04:07;;;;;;;5.90;5.50;;;37.10;1.00;;;;;;5095622;28;20192;-45
2023/02/13 12:06:38;;;;;;;5.60;5.20;;;37.40;1.00;;;;;;5096088;28;20410;-48
2023/02/13 12:09:11;;;;;;;5.70;5.20;;;36.70;1.00;;;;;;5094238;28;20454;-46
2023/02/13 12:11:50;;;;;;;5.70;5.23;;;37.00;1.00;;;;;;5092110;28;21012;-47
2023/02/13 12:14:23;;;;;;;7.30;6.70;;;36.70;1.00;;;;;;5091934;28;20422;-46
2023/02/13 12:16:53;;;;;;;5.10;4.70;;;36.70;1.00;;;;;;5093159;28;20776;-47
2023/02/13 12:19:43;;;;;;;4.13;3.83;;;37.10;1.00;;;;;;5090644;28;20714;-46
2023/02/13 12:22:25;;;;;;;6.63;6.13;;;37.80;1.00;;;;;;5093763;28;20722;-45
2023/02/13 12:25:05;;;;;;;5.90;5.40;;;37.60;1.00;;;;;;5092323;28;20447;-48
2023/02/13 12:27:41;;;;;;;5.20;4.70;;;37.70;1.00;;;;;;5093868;28;20625;-47
2023/02/13 12:30:28;;;;;;;4.47;4.17;;;38.00;1.00;;;;;;5094943;28;20455;-47
2023/02/13 12:33:29;;;;;;;5.40;5.00;;;38.60;1.00;;;;;;5092824;28;20482;-46
2023/02/13 12:36:01;;;;;;;4.23;3.93;;;38.80;1.00;;;;;;5090433;28;20398;-46
2023/02/13 12:38:35;;;;;;;6.27;4.30;;;39.40;1.00;;;;;;5089799;28;20426;-47
2023/02/13 12:41:15;;;;;;;5.50;5.00;;;36.60;1.00;;;;;;5092741;28;20394;-47
2023/02/13 12:43:44;;;;;;;4.47;4.17;;;39.00;1.00;;;;;;5092916;28;20422;-47
2023/02/13 12:46:47;;;;;;;4.73;4.33;;;39.60;1.00;;;;;;5092041;28;20961;-46
2023/02/13 12:49:44;;;;;;;4.83;4.43;;;40.10;1.00;;;;;;5092670;28;20822;-51
2023/02/13 12:52:32;;;;;;;4.40;4.10;;;40.60;1.00;;;;;;5091368;28;20422;-46
2023/02/13 12:55:24;;;;;;;4.87;4.47;;;40.60;1.00;;;;;;5091514;28;20518;-46
2023/02/13 12:58:14;;;;;;;5.00;4.57;;;40.20;1.00;;;;;;5092708;28;20466;-46
2023/02/13 13:00:57;;;;;;;3.90;3.60;;;40.30;1.00;;;;;;5090847;28;20905;-48
2023/02/13 13:03:41;;;;;;;4.77;4.37;;;40.70;1.00;;;;;;5072440;28;20418;-45
2023/02/13 13:06:34;;;;;;;4.57;4.17;;;40.70;1.00;;;;;;5092724;28;20403;-47
2023/02/13 13:09:19;;;;;;;4.20;3.90;;;40.90;1.00;;;;;;5092733;28;20467;-49
2023/02/13 13:12:00;;;;;;;4.80;4.40;;;41.00;1.00;;;;;;5090643;28;20688;-47
2023/02/13 13:14:42;;;;;;;3.90;3.60;;;40.90;1.00;;;;;;5091233;28;20418;-49
2023/02/13 13:17:21;;;;;;;5.20;4.70;;;40.50;1.00;;;;;;5091823;28;20491;-47
2023/02/13 13:20:14;;;;;;;4.20;3.90;;;40.40;1.00;;;;;;5090703;28;20480;-48
2023/02/13 13:23:04;;;;;;;4.50;4.20;;;40.20;1.00;;;;;;5091277;28;20696;-46
2023/02/13 13:25:39;;;;;;;3.83;3.30;;;40.00;1.00;;;;;;5087781;28;20474;-46
2023/02/13 13:28:17;;;;;;;4.10;3.73;;;40.20;1.00;;;;;;5093630;28;20491;-49
2023/02/13 13:30:43;;;;;;;4.00;3.70;;;40.50;1.00;;;;;;5093151;28;20427;-47
2023/02/13 13:33:19;;;;;;;3.43;3.23;;;40.20;1.00;;;;;;5092073;28;20440;-44
2023/02/13 13:36:07;;;;;;;4.83;4.43;;;40.20;1.00;;;;;;5092934;28;20449;-47
2023/02/13 13:38:50;;;;;;;6.17;4.67;;;40.00;1.00;;;;;;5090764;28;20748;-47
2023/02/13 13:41:25;;;;;;;4.00;3.70;;;40.10;1.00;;;;;;5092830;28;20475;-49
2023/02/13 13:44:18;;;;;;;3.70;3.40;;;40.20;1.00;;;;;;5090619;28;20398;-44
2023/02/13 13:46:53;;;;;;;4.60;3.90;;;40.40;1.00;;;;;;5092998;28;20728;-45
2023/02/13 13:49:27;;;;;;;4.60;4.17;;;40.30;1.00;;;;;;5093523;28;20410;-47
2023/02/13 13:51:53;;;;;;;4.90;4.50;;;40.30;1.00;;;;;;5092894;28;20437;-45